Grants, NM

4:45 PM MST on December 26, 2014 (GMT -0700)
Grants-Milan Municipal | Change Station
CLOSE
Current Station
Airport
Location: Grants-Milan,
Elevation: 6519 ft
Nearby Weather Stations

Elev 6519 ft 35.17 °N, 107.90 °W | Updated 10 minutes ago

Mostly Cloudy
Mostly Cloudy
26 °F
Feels Like 18 °F
N
8
Wind Variable Wind from NNW

Today
High -- | Low -- °F
--% Chance of Precip.
Yesterday
High -- | Low -- °F
Precip. -- in
7:18 AM 5:05 PM
Waxing Crescent, 30% visible
Pressure 29.93 in
Visibility 10.0 miles
Clouds Clear
Windchill 18 °F
Dew Point 12 °F
Humidity 56%
Rainfall 0.00 in
Snow Depth Not available.
UV 0 out of 12
Pollen 2.00 out of 12
Air Quality Not available.
Flu Activity Not available.
METAR KGNT 262335Z AUTO 33007KT 10SM CLR M03/M11 A2993 RMK AO2 T10331110

More Conditions Fewer Conditions

Pressure 29.93 in
Visibility 10.0 miles
Clouds Clear
Windchill 18 °F
Dew Point 12 °F
Humidity 56%
Rainfall 0.00 in
Snow Depth Not available.
UV 0 out of 12
Pollen 2.00 out of 12
Air Quality Not available.
Flu Activity Not available.
METAR KGNT 262335Z AUTO 33007KT 10SM CLR M03/M11 A2993 RMK AO2 T10331110

More Conditions Fewer Conditions

Nowcast | as of 3:21 PM MST on December 26, 2014

Scattered snow showers will persist over much of western and central New Mexico into the early evening hours. The majority of the showers will be focused over the higher terrain. Visibilities in snow will vary from around 1 to 3 miles. Additional snow accumulations will range from a dusting to a very localized 1 to 2 inches in the heavier showers. Before 6 PM some locations which may be affected include Cuba...Jemez Springs...Santa Fe...Espanola...Embudo...Pilar and Talpa. Roads over the region may be snowpacked and icy...especially across the higher terrain. For the latest New Mexico Road conditions visit nmroads.Com or call 5 1 1.

×

10-Day Weather Forecast

Almanac

Astronomy

Dec. 26, 2014 Rise Set
Actual Time
Civil Twilight
Nautical Twilight
Astronomical Twilight
Moon
Length of Visible Light
Length of Day
Tomorrow will be .
, % of the Moon is Illuminated

Today's Extremes

State Highs State Lows

Community

WunderPhotos

Upload Photos

1,780,769 photos uploaded!

WunderBlogs® & News

Nearby

Air Quality

  Air Quality AQ Index Pollutant
Not available.

Snow Depth

Station Depth Elevation

Earthquake Activity

City Distance Mag. Time & Date
Minimum magnitude displayed is 2.5.

Coastal Water Temperatures

Place Temperature

Nearby Weather Stations